createdAt,value
2023-12-30T00:00:19.710Z,79.20
2023-12-30T00:02:48.296Z,79.50
2023-12-30T00:05:15.857Z,79.30
2023-12-30T00:07:43.150Z,79.50
2023-12-30T00:10:10.178Z,79.90
2023-12-30T00:12:37.380Z,80.20
2023-12-30T00:15:04.738Z,80.60
2023-12-30T00:17:31.566Z,81.00
2023-12-30T00:19:58.468Z,81.40
2023-12-30T00:22:25.341Z,81.50
2023-12-30T00:24:52.190Z,81.50
2023-12-30T00:27:18.994Z,81.80
2023-12-30T00:29:45.842Z,81.90
2023-12-30T00:32:12.529Z,82.10
2023-12-30T00:34:39.296Z,82.00
2023-12-30T00:37:06.070Z,81.90
2023-12-30T00:39:32.889Z,81.80
2023-12-30T00:41:59.627Z,82.00
2023-12-30T00:44:26.386Z,81.90
2023-12-30T00:46:53.143Z,81.90
2023-12-30T00:49:20.003Z,81.80
2023-12-30T00:51:47.417Z,81.70
2023-12-30T00:54:14.266Z,81.40
2023-12-30T00:56:40.987Z,81.30
2023-12-30T00:59:07.696Z,81.40
2023-12-30T01:01:34.687Z,81.00
2023-12-30T01:04:01.765Z,80.90
2023-12-30T01:06:28.599Z,80.50
2023-12-30T01:08:55.305Z,80.10
2023-12-30T01:11:22.019Z,79.10
2023-12-30T01:13:48.732Z,78.50
2023-12-30T01:16:17.916Z,78.50
2023-12-30T01:18:46.425Z,78.60
2023-12-30T01:21:13.227Z,78.70
2023-12-30T01:23:40.050Z,78.80
2023-12-30T01:26:06.813Z,79.10
2023-12-30T01:28:35.178Z,79.50
2023-12-30T01:31:02.184Z,79.80
2023-12-30T01:33:29.118Z,79.90
2023-12-30T01:35:56.597Z,79.90
2023-12-30T01:38:23.281Z,80.00
2023-12-30T01:40:50.001Z,80.10
2023-12-30T01:43:30.595Z,80.20
2023-12-30T01:46:01.026Z,80.30
2023-12-30T01:48:28.946Z,80.40
2023-12-30T01:51:00.109Z,80.30
2023-12-30T01:53:33.723Z,80.40
2023-12-30T01:56:01.517Z,80.60
2023-12-30T01:58:28.843Z,81.60
2023-12-30T02:00:56.853Z,80.80
2023-12-30T02:03:24.350Z,80.90
2023-12-30T02:05:51.461Z,81.00
2023-12-30T02:08:18.754Z,81.20
2023-12-30T02:10:45.641Z,81.10
2023-12-30T02:13:12.415Z,81.30
2023-12-30T02:15:39.133Z,81.40
2023-12-30T02:18:06.073Z,81.50
2023-12-30T02:20:34.564Z,81.60
2023-12-30T02:23:01.715Z,81.70
2023-12-30T02:25:28.767Z,81.70
2023-12-30T02:27:55.590Z,81.80
2023-12-30T02:30:25.076Z,81.90
2023-12-30T02:32:58.175Z,81.90
2023-12-30T02:35:25.800Z,82.10
2023-12-30T02:37:52.895Z,82.20
2023-12-30T02:40:20.069Z,82.30
2023-12-30T02:42:46.957Z,82.40
2023-12-30T02:45:13.981Z,82.40
2023-12-30T02:47:40.801Z,82.50
2023-12-30T02:50:08.282Z,82.60
2023-12-30T02:52:35.213Z,82.70
2023-12-30T02:55:03.086Z,82.70
2023-12-30T02:57:29.938Z,82.80
2023-12-30T02:59:56.648Z,82.80
2023-12-30T03:02:24.780Z,82.90
2023-12-30T03:04:53.182Z,83.00
2023-12-30T03:07:20.099Z,83.00
2023-12-30T03:09:46.845Z,83.10
2023-12-30T03:12:15.992Z,83.30
2023-12-30T03:14:42.691Z,83.40
2023-12-30T03:17:09.373Z,83.40
2023-12-30T03:19:36.109Z,83.40
2023-12-30T03:22:03.499Z,83.50
2023-12-30T03:24:30.220Z,83.60
2023-12-30T03:26:56.930Z,83.40
2023-12-30T03:29:23.648Z,83.10
2023-12-30T03:31:52.947Z,82.90
2023-12-30T03:34:19.870Z,82.70
2023-12-30T03:36:46.574Z,82.60
2023-12-30T03:39:13.279Z,82.60
2023-12-30T03:41:40.019Z,82.60
2023-12-30T03:44:06.765Z,82.70
2023-12-30T03:46:33.502Z,82.80
2023-12-30T03:49:00.368Z,83.10
2023-12-30T03:51:27.094Z,83.00
2023-12-30T03:53:53.854Z,83.30
2023-12-30T03:56:20.599Z,83.30
2023-12-30T03:58:47.305Z,83.40
2023-12-30T04:01:14.116Z,83.40
2023-12-30T04:03:40.877Z,83.50
2023-12-30T04:06:15.841Z,83.40
2023-12-30T04:08:42.560Z,83.50
2023-12-30T04:11:09.269Z,83.50
2023-12-30T04:13:36.333Z,83.50
2023-12-30T04:16:03.224Z,83.50
2023-12-30T04:18:29.939Z,83.60
2023-12-30T04:20:56.767Z,83.60
2023-12-30T04:23:25.370Z,83.60
2023-12-30T04:25:52.110Z,83.60
2023-12-30T04:28:18.889Z,83.60
2023-12-30T04:30:45.793Z,83.60
2023-12-30T04:33:13.018Z,83.60
2023-12-30T04:35:42.299Z,83.60
2023-12-30T04:38:09.091Z,83.60
2023-12-30T04:40:35.907Z,83.60
2023-12-30T04:43:03.672Z,83.70
2023-12-30T04:45:30.513Z,83.60
2023-12-30T04:47:57.376Z,83.60
2023-12-30T04:50:24.864Z,83.60
2023-12-30T04:52:52.068Z,83.60
2023-12-30T04:55:18.844Z,83.50
2023-12-30T04:57:48.861Z,83.40
2023-12-30T05:00:19.249Z,83.30
2023-12-30T05:02:47.590Z,83.20
2023-12-30T05:05:14.361Z,83.20
2023-12-30T05:07:41.043Z,83.20
2023-12-30T05:10:10.812Z,83.00
2023-12-30T05:12:37.784Z,83.00
2023-12-30T05:15:04.995Z,82.90
2023-12-30T05:17:32.896Z,82.80
2023-12-30T05:19:59.589Z,82.80
2023-12-30T05:22:26.398Z,82.80
2023-12-30T05:24:53.233Z,82.60
2023-12-30T05:27:19.984Z,82.60
2023-12-30T05:29:46.981Z,82.50
2023-12-30T05:32:13.692Z,82.50
2023-12-30T05:34:40.436Z,82.40
2023-12-30T05:37:07.397Z,82.40
2023-12-30T05:39:34.290Z,82.40
2023-12-30T05:42:00.980Z,82.40
2023-12-30T05:44:27.694Z,82.40
2023-12-30T05:46:54.399Z,82.40
2023-12-30T05:49:21.223Z,82.30
2023-12-30T05:51:48.019Z,82.40
2023-12-30T05:54:14.754Z,82.40
2023-12-30T05:56:41.447Z,82.40
2023-12-30T05:59:08.248Z,82.50
2023-12-30T06:01:35.074Z,82.60
2023-12-30T06:04:01.982Z,82.60
2023-12-30T06:06:30.567Z,82.60
2023-12-30T06:08:58.862Z,82.60
2023-12-30T06:11:25.586Z,82.60
2023-12-30T06:13:53.047Z,82.70
2023-12-30T06:16:19.840Z,82.80
2023-12-30T06:18:46.618Z,82.90
2023-12-30T06:21:13.524Z,82.90
2023-12-30T06:23:40.231Z,83.00
2023-12-30T06:26:06.974Z,83.10
2023-12-30T06:28:33.784Z,83.10
2023-12-30T06:31:01.002Z,83.10
2023-12-30T06:33:27.915Z,83.20
2023-12-30T06:35:54.788Z,83.20
2023-12-30T06:38:21.503Z,83.20
2023-12-30T06:40:48.508Z,83.20
2023-12-30T06:43:15.959Z,83.30
2023-12-30T06:45:42.706Z,83.40
2023-12-30T06:48:09.732Z,83.40
2023-12-30T06:50:36.796Z,83.30
2023-12-30T06:53:04.098Z,83.30
2023-12-30T06:55:35.584Z,83.40
2023-12-30T06:58:09.375Z,83.40
2023-12-30T07:00:37.019Z,83.40
2023-12-30T07:03:04.749Z,83.40
2023-12-30T07:05:36.943Z,83.50
2023-12-30T07:08:04.201Z,83.60
2023-12-30T07:10:30.946Z,83.60
2023-12-30T07:12:57.707Z,83.60
2023-12-30T07:15:24.738Z,83.60
2023-12-30T07:17:51.483Z,83.60
2023-12-30T07:20:18.222Z,83.60
2023-12-30T07:22:45.125Z,83.60
2023-12-30T07:25:12.043Z,83.60
2023-12-30T07:27:39.019Z,83.50
2023-12-30T07:30:06.473Z,83.60
2023-12-30T07:32:34.099Z,83.70
2023-12-30T07:35:01.172Z,83.80
2023-12-30T07:37:28.822Z,83.80
2023-12-30T07:39:55.918Z,83.80
2023-12-30T07:42:24.032Z,83.80
2023-12-30T07:44:54.158Z,83.80
2023-12-30T07:47:21.427Z,83.60
2023-12-30T07:49:48.847Z,83.70
2023-12-30T07:52:15.699Z,83.50
2023-12-30T07:54:42.570Z,83.50
2023-12-30T07:57:09.445Z,83.60
2023-12-30T07:59:36.232Z,83.60
2023-12-30T08:02:03.443Z,83.60
2023-12-30T08:04:30.447Z,83.40
2023-12-30T08:06:57.395Z,83.40
2023-12-30T08:09:24.429Z,83.40
2023-12-30T08:11:59.243Z,83.20
2023-12-30T08:14:29.425Z,83.10
2023-12-30T08:16:56.188Z,83.00
2023-12-30T08:19:22.946Z,82.80
2023-12-30T08:21:49.743Z,82.90
2023-12-30T08:24:17.739Z,83.00
2023-12-30T08:26:44.598Z,83.00
2023-12-30T08:29:11.404Z,82.90
2023-12-30T08:31:38.554Z,82.80
2023-12-30T08:34:05.517Z,82.60
2023-12-30T08:36:32.458Z,82.50
2023-12-30T08:38:59.145Z,82.50
2023-12-30T08:41:28.805Z,82.50
2023-12-30T08:43:57.619Z,82.30
2023-12-30T08:46:24.615Z,82.20
2023-12-30T08:48:51.541Z,82.20
2023-12-30T08:51:18.503Z,82.30
2023-12-30T08:53:45.249Z,82.30
2023-12-30T08:56:12.562Z,82.20
2023-12-30T08:58:39.367Z,82.30
2023-12-30T09:01:07.211Z,82.20
2023-12-30T09:03:34.073Z,82.20
2023-12-30T09:06:00.909Z,82.20
2023-12-30T09:08:27.974Z,82.10
2023-12-30T09:10:54.842Z,82.00
2023-12-30T09:13:21.612Z,82.10
2023-12-30T09:15:48.393Z,82.00
2023-12-30T09:18:15.730Z,82.00
2023-12-30T09:20:43.255Z,82.00
2023-12-30T09:23:10.012Z,81.90
2023-12-30T09:25:37.530Z,82.20
2023-12-30T09:28:04.777Z,82.10
2023-12-30T09:30:31.645Z,82.20
2023-12-30T09:32:58.481Z,82.30
2023-12-30T09:35:25.273Z,82.30
2023-12-30T09:37:52.102Z,82.40
2023-12-30T09:40:19.253Z,82.40
2023-12-30T09:42:49.465Z,82.20
2023-12-30T09:45:16.980Z,82.30
2023-12-30T09:47:46.914Z,82.10
2023-12-30T09:50:14.392Z,82.00
2023-12-30T09:52:41.314Z,82.00
2023-12-30T09:55:08.580Z,81.90
2023-12-30T09:57:35.742Z,81.80
2023-12-30T10:00:06.492Z,81.60
2023-12-30T10:02:34.402Z,81.60
2023-12-30T10:05:02.377Z,81.40
2023-12-30T10:07:32.750Z,81.50
2023-12-30T10:09:59.627Z,81.50
2023-12-30T10:12:26.799Z,81.40
2023-12-30T10:14:53.684Z,81.30
2023-12-30T10:17:21.378Z,81.10
2023-12-30T10:19:48.547Z,81.10
2023-12-30T10:22:15.804Z,81.20
2023-12-30T10:24:43.326Z,81.20
2023-12-30T10:27:11.493Z,81.10
2023-12-30T10:29:46.971Z,81.20
2023-12-30T10:32:22.219Z,80.90
2023-12-30T10:34:49.260Z,80.70
2023-12-30T10:37:17.301Z,80.80
2023-12-30T10:39:47.931Z,80.70
2023-12-30T10:42:14.963Z,80.60
2023-12-30T10:44:41.809Z,80.30
2023-12-30T10:47:11.399Z,80.30
2023-12-30T10:49:41.232Z,80.50
2023-12-30T10:52:12.999Z,80.60
2023-12-30T10:54:47.289Z,80.60
2023-12-30T10:57:18.549Z,80.60
2023-12-30T10:59:50.368Z,80.20
2023-12-30T11:02:18.682Z,80.80
2023-12-30T11:04:46.878Z,79.80
2023-12-30T11:07:16.274Z,79.40
2023-12-30T11:09:44.037Z,79.60
2023-12-30T11:12:11.310Z,79.70
2023-12-30T11:14:38.450Z,79.80
2023-12-30T11:17:05.443Z,79.80
2023-12-30T11:19:34.409Z,79.70
2023-12-30T11:22:03.703Z,79.70
2023-12-30T11:24:30.994Z,79.20
2023-12-30T11:26:57.932Z,79.30
2023-12-30T11:29:27.571Z,79.50
2023-12-30T11:31:55.868Z,78.90
2023-12-30T11:34:23.403Z,79.00
2023-12-30T11:36:52.930Z,78.80
2023-12-30T11:39:29.770Z,78.90
2023-12-30T11:41:59.660Z,79.10
2023-12-30T11:44:28.716Z,79.10
2023-12-30T11:46:55.718Z,78.70
2023-12-30T11:49:24.398Z,78.70
2023-12-30T11:52:01.305Z,78.80
2023-12-30T11:54:28.299Z,78.80
2023-12-30T11:56:55.068Z,78.80
2023-12-30T11:59:21.860Z,78.90
2023-12-30T12:01:48.835Z,79.00
2023-12-30T12:04:15.927Z,79.10
2023-12-30T12:06:42.770Z,79.10
2023-12-30T12:09:09.557Z,79.10
2023-12-30T12:11:36.292Z,79.20
2023-12-30T12:14:03.153Z,79.10
2023-12-30T12:16:32.979Z,78.90
2023-12-30T12:19:04.713Z,78.70
2023-12-30T12:21:31.588Z,78.70
2023-12-30T12:23:58.430Z,78.70
2023-12-30T12:26:25.898Z,78.70
2023-12-30T12:28:54.929Z,78.70
2023-12-30T12:31:21.935Z,78.80
2023-12-30T12:33:49.569Z,78.70
2023-12-30T12:36:18.784Z,78.70
2023-12-30T12:38:45.921Z,78.90
2023-12-30T12:41:14.024Z,78.90
2023-12-30T12:43:40.891Z,78.80
2023-12-30T12:46:09.184Z,78.90
2023-12-30T12:48:37.055Z,78.90
2023-12-30T12:51:04.176Z,79.00
2023-12-30T12:53:31.004Z,78.90
2023-12-30T12:55:57.863Z,79.10
2023-12-30T12:58:24.678Z,78.80
2023-12-30T13:00:51.478Z,78.80
2023-12-30T13:03:18.291Z,78.80
2023-12-30T13:05:45.148Z,79.10
2023-12-30T13:08:12.408Z,79.10
2023-12-30T13:10:47.254Z,78.90
2023-12-30T13:13:14.473Z,78.90
2023-12-30T13:15:41.264Z,78.80
2023-12-30T13:18:12.758Z,78.90
2023-12-30T13:20:42.607Z,78.80
2023-12-30T13:23:11.939Z,78.90
2023-12-30T13:25:39.358Z,78.90
2023-12-30T13:28:07.556Z,78.80
2023-12-30T13:30:35.665Z,78.90
2023-12-30T13:33:06.154Z,78.90
2023-12-30T13:35:37.513Z,78.30
2023-12-30T13:38:13.918Z,78.30
2023-12-30T13:40:42.248Z,78.50
2023-12-30T13:43:10.519Z,78.50
2023-12-30T13:45:44.659Z,78.40
2023-12-30T13:48:30.242Z,77.90
2023-12-30T13:51:01.180Z,77.90
2023-12-30T13:53:28.993Z,77.70
2023-12-30T13:56:06.942Z,77.70
2023-12-30T13:58:34.300Z,77.30
2023-12-30T14:01:01.619Z,77.10
2023-12-30T14:03:28.758Z,77.40
2023-12-30T14:05:56.028Z,77.40
2023-12-30T14:08:43.310Z,77.40
2023-12-30T14:11:22.021Z,77.40
2023-12-30T14:13:51.377Z,77.30
2023-12-30T14:16:18.702Z,76.70
2023-12-30T14:18:45.501Z,76.50
2023-12-30T14:21:12.390Z,77.50
2023-12-30T14:23:39.113Z,76.20
2023-12-30T14:26:05.809Z,76.10
2023-12-30T14:28:32.633Z,76.20
2023-12-30T14:30:59.468Z,76.10
2023-12-30T14:33:26.367Z,76.10
2023-12-30T14:35:53.213Z,76.20
2023-12-30T14:38:20.415Z,76.20
2023-12-30T14:40:47.311Z,76.10
2023-12-30T14:43:14.323Z,76.10
2023-12-30T14:45:41.197Z,76.00
2023-12-30T14:48:08.084Z,75.50
2023-12-30T14:50:34.877Z,75.60
2023-12-30T14:53:01.901Z,75.30
2023-12-30T14:55:28.999Z,75.20
2023-12-30T14:57:57.996Z,75.20
2023-12-30T15:00:25.318Z,75.00
2023-12-30T15:02:53.788Z,75.10
2023-12-30T15:05:23.124Z,76.30
2023-12-30T15:07:53.587Z,75.30
2023-12-30T15:10:23.114Z,75.10
2023-12-30T15:12:49.936Z,74.70
2023-12-30T15:15:16.727Z,74.70
2023-12-30T15:17:43.732Z,74.80
2023-12-30T15:20:10.910Z,74.70
2023-12-30T15:22:39.070Z,74.60
2023-12-30T15:25:06.638Z,74.60
2023-12-30T15:27:33.679Z,74.00
2023-12-30T15:30:00.650Z,73.90
2023-12-30T15:32:27.855Z,73.90
2023-12-30T15:34:55.005Z,74.10
2023-12-30T15:37:22.108Z,74.10
2023-12-30T15:39:48.943Z,73.80
2023-12-30T15:42:16.442Z,73.70
2023-12-30T15:44:43.832Z,73.80
2023-12-30T15:47:11.675Z,73.60
2023-12-30T15:49:40.834Z,73.70
2023-12-30T15:52:09.013Z,73.60
2023-12-30T15:54:36.727Z,73.60
2023-12-30T15:57:04.020Z,73.70
2023-12-30T15:59:30.813Z,73.90
2023-12-30T16:01:57.691Z,73.90
2023-12-30T16:04:24.479Z,74.00
2023-12-30T16:06:51.331Z,73.90
2023-12-30T16:09:18.737Z,73.80
2023-12-30T16:11:45.529Z,73.80
2023-12-30T16:14:13.716Z,73.90
2023-12-30T16:16:45.231Z,73.90
2023-12-30T16:19:17.125Z,73.90
2023-12-30T16:21:45.945Z,74.10
2023-12-30T16:24:14.557Z,74.10
2023-12-30T16:26:41.827Z,74.20
2023-12-30T16:29:09.486Z,74.20
2023-12-30T16:31:36.448Z,74.10
2023-12-30T16:34:03.898Z,74.10
2023-12-30T16:36:31.569Z,74.20
2023-12-30T16:38:58.514Z,74.20
2023-12-30T16:41:25.501Z,74.20
2023-12-30T16:43:52.646Z,74.30
2023-12-30T16:46:20.164Z,74.20
2023-12-30T16:48:47.403Z,74.10
2023-12-30T16:51:14.721Z,74.20
2023-12-30T16:53:42.504Z,74.20
2023-12-30T16:56:10.049Z,74.20
2023-12-30T16:58:37.134Z,74.20
2023-12-30T17:01:05.334Z,74.10
2023-12-30T17:03:32.342Z,74.20
2023-12-30T17:05:59.299Z,74.10
2023-12-30T17:08:26.086Z,74.20
2023-12-30T17:10:52.823Z,74.30
2023-12-30T17:13:23.054Z,74.40
2023-12-30T17:15:54.098Z,74.50
2023-12-30T17:18:21.032Z,74.70
2023-12-30T17:20:47.957Z,74.70
2023-12-30T17:23:14.729Z,74.70
2023-12-30T17:25:41.586Z,74.80
2023-12-30T17:28:09.715Z,74.90
2023-12-30T17:30:36.576Z,75.10
2023-12-30T17:33:04.225Z,75.00
2023-12-30T17:35:31.740Z,75.10
2023-12-30T17:37:59.122Z,75.10
2023-12-30T17:40:25.984Z,75.30
2023-12-30T17:42:52.733Z,75.20
2023-12-30T17:45:19.788Z,75.30
2023-12-30T17:47:47.661Z,75.40
2023-12-30T17:50:14.930Z,75.50
2023-12-30T17:52:41.772Z,75.50
2023-12-30T17:55:09.404Z,75.60
2023-12-30T17:57:36.188Z,75.60
2023-12-30T18:00:03.085Z,75.70
2023-12-30T18:02:31.494Z,75.90
2023-12-30T18:04:58.333Z,76.00
2023-12-30T18:07:25.156Z,75.90
2023-12-30T18:09:51.911Z,76.00
2023-12-30T18:12:19.050Z,76.00
2023-12-30T18:14:46.021Z,76.00
2023-12-30T18:17:12.843Z,76.10
2023-12-30T18:19:39.588Z,76.20
2023-12-30T18:22:06.390Z,76.20
2023-12-30T18:24:33.337Z,76.10
2023-12-30T18:27:00.083Z,76.10
2023-12-30T18:29:27.060Z,76.20
2023-12-30T18:31:53.835Z,76.10
2023-12-30T18:34:20.785Z,76.20
2023-12-30T18:36:47.578Z,76.20
2023-12-30T18:39:14.975Z,76.00
2023-12-30T18:41:41.877Z,76.00
2023-12-30T18:44:08.767Z,76.10
2023-12-30T18:46:35.936Z,76.20
2023-12-30T18:49:02.946Z,76.10
2023-12-30T18:51:29.812Z,75.90
2023-12-30T18:53:56.679Z,75.90
2023-12-30T18:56:23.466Z,76.00
2023-12-30T18:58:50.633Z,75.90
2023-12-30T19:01:17.882Z,75.90
2023-12-30T19:03:44.861Z,75.80
2023-12-30T19:06:11.750Z,75.80
2023-12-30T19:08:39.518Z,75.90
2023-12-30T19:11:06.890Z,76.00
2023-12-30T19:13:33.878Z,76.00
2023-12-30T19:16:00.725Z,76.00
2023-12-30T19:18:27.537Z,75.90
2023-12-30T19:20:56.556Z,75.90
2023-12-30T19:23:23.572Z,76.00
2023-12-30T19:25:50.752Z,76.00
2023-12-30T19:28:17.641Z,76.00
2023-12-30T19:30:44.444Z,76.00
2023-12-30T19:33:13.386Z,76.00
2023-12-30T19:35:42.662Z,76.00
2023-12-30T19:38:09.732Z,76.10
2023-12-30T19:40:36.754Z,76.00
2023-12-30T19:43:05.263Z,75.90
2023-12-30T19:45:32.275Z,75.90
2023-12-30T19:48:00.084Z,76.00
2023-12-30T19:50:28.734Z,76.00
2023-12-30T19:52:56.105Z,75.90
2023-12-30T19:55:23.073Z,75.90
2023-12-30T19:57:49.860Z,75.80
2023-12-30T20:00:17.054Z,75.70
2023-12-30T20:02:45.316Z,75.60
2023-12-30T20:05:19.202Z,75.60
2023-12-30T20:07:46.108Z,75.70
2023-12-30T20:10:13.179Z,75.60
2023-12-30T20:12:40.051Z,75.70
2023-12-30T20:15:10.271Z,75.70
2023-12-30T20:17:37.224Z,75.60
2023-12-30T20:20:07.813Z,75.70
2023-12-30T20:22:34.759Z,75.70
2023-12-30T20:25:01.938Z,75.70
2023-12-30T20:27:28.905Z,76.80
2023-12-30T20:29:55.802Z,75.70
2023-12-30T20:32:23.049Z,75.80
2023-12-30T20:34:50.693Z,75.90
2023-12-30T20:37:19.010Z,76.00
2023-12-30T20:39:46.662Z,76.00
2023-12-30T20:42:13.880Z,76.00
2023-12-30T20:44:41.151Z,76.10
2023-12-30T20:47:10.498Z,76.00
2023-12-30T20:49:38.774Z,76.00
2023-12-30T20:52:05.912Z,76.00
2023-12-30T20:54:33.521Z,76.00
2023-12-30T20:57:01.326Z,76.00
2023-12-30T20:59:28.128Z,76.00
2023-12-30T21:01:55.434Z,77.00
2023-12-30T21:04:22.253Z,77.00
2023-12-30T21:06:49.097Z,76.10
2023-12-30T21:09:15.873Z,76.10
2023-12-30T21:11:43.198Z,76.10
2023-12-30T21:14:10.059Z,76.20
2023-12-30T21:16:37.126Z,76.20
2023-12-30T21:19:04.308Z,76.20
2023-12-30T21:21:31.204Z,76.30
2023-12-30T21:23:58.063Z,76.40
2023-12-30T21:26:25.795Z,76.50
2023-12-30T21:28:52.557Z,76.60
2023-12-30T21:31:19.374Z,76.70
2023-12-30T21:33:46.249Z,76.70
2023-12-30T21:36:15.881Z,76.80
2023-12-30T21:38:44.365Z,76.70
2023-12-30T21:41:12.862Z,76.80
2023-12-30T21:43:42.871Z,76.80
2023-12-30T21:46:09.650Z,76.80
2023-12-30T21:48:36.508Z,76.80
2023-12-30T21:51:07.576Z,76.80
2023-12-30T21:53:34.408Z,76.80
2023-12-30T21:56:01.214Z,76.90
2023-12-30T21:58:28.032Z,76.90
2023-12-30T22:00:54.818Z,76.90
2023-12-30T22:03:21.728Z,77.00
2023-12-30T22:05:48.639Z,77.00
2023-12-30T22:08:16.843Z,77.10
2023-12-30T22:10:43.808Z,77.10
2023-12-30T22:13:11.430Z,77.10
2023-12-30T22:15:38.393Z,77.20
2023-12-30T22:18:05.643Z,77.20
2023-12-30T22:20:32.608Z,77.20
2023-12-30T22:22:59.353Z,77.20
2023-12-30T22:25:26.184Z,77.20
2023-12-30T22:27:52.949Z,77.20
2023-12-30T22:30:19.755Z,77.40
2023-12-30T22:32:46.584Z,77.40
2023-12-30T22:35:14.518Z,77.40
2023-12-30T22:37:42.522Z,77.50
2023-12-30T22:40:13.342Z,77.60
2023-12-30T22:42:40.381Z,77.60
2023-12-30T22:45:08.082Z,77.70
2023-12-30T22:47:37.161Z,77.70
2023-12-30T22:50:07.949Z,77.90
2023-12-30T22:52:35.334Z,78.00
2023-12-30T22:55:03.236Z,78.00
2023-12-30T22:57:30.892Z,78.00
2023-12-30T22:59:57.716Z,78.00
2023-12-30T23:02:24.498Z,77.90
2023-12-30T23:04:51.646Z,77.90
2023-12-30T23:07:18.557Z,77.90
2023-12-30T23:09:48.669Z,77.90
2023-12-30T23:12:15.501Z,77.80
2023-12-30T23:14:42.328Z,77.80
2023-12-30T23:17:09.362Z,78.90
2023-12-30T23:19:36.725Z,77.80
2023-12-30T23:22:03.604Z,77.80
2023-12-30T23:24:30.477Z,77.90
2023-12-30T23:26:57.353Z,78.00
2023-12-30T23:29:26.080Z,78.20
2023-12-30T23:31:52.850Z,78.40
2023-12-30T23:34:19.635Z,78.50
2023-12-30T23:36:46.431Z,78.60
2023-12-30T23:39:13.400Z,78.50
2023-12-30T23:41:40.152Z,78.50
2023-12-30T23:44:06.884Z,78.60
2023-12-30T23:46:34.544Z,78.60
2023-12-30T23:49:01.330Z,78.60
2023-12-30T23:51:28.073Z,78.60
2023-12-30T23:53:54.821Z,78.70
2023-12-30T23:56:21.687Z,78.70
2023-12-30T23:58:48.455Z,78.80
